Time;durP1;ratioP1;P1;durP2;ratioP2;P2;SDS_P1;SDS_P2;PMS_P1;PMS_P2;Temp;Humidity;BMP_temperature;BMP_pressure;BME280_temperature;BME280_humidity;BME280_pressure;Samples;Min_cycle;Max_cycle;Signal;HPM_P1;HPM_P2
2023/07/27 00:02:08;;;;;;;5.40;4.20;;;;;;;14.82;86.99;99601.56;130606;1259;107392;-77
2023/07/27 00:05:14;;;;;;;6.80;4.40;;;;;;;14.88;86.85;99599.70;130481;1259;107473;-76
2023/07/27 00:08:19;;;;;;;6.10;4.00;;;;;;;14.91;86.91;99611.83;130552;1259;107257;-76
2023/07/27 00:11:25;;;;;;;5.10;3.80;;;;;;;14.94;86.73;99610.95;130570;1259;106693;-76
2023/07/27 00:14:30;;;;;;;7.00;3.90;;;;;;;14.99;86.83;99614.06;130486;1259;106315;-76
2023/07/27 00:17:36;;;;;;;5.80;4.10;;;;;;;15.03;86.67;99613.18;130578;1259;107393;-76
2023/07/27 00:20:41;;;;;;;5.30;4.20;;;;;;;15.03;86.76;99611.73;130486;1259;107368;-77
2023/07/27 00:23:47;;;;;;;6.80;4.70;;;;;;;15.06;86.67;99609.16;130594;1259;107400;-77
2023/07/27 00:26:52;;;;;;;4.30;3.90;;;;;;;15.09;86.91;99607.19;130590;1259;107574;-77
2023/07/27 00:29:58;;;;;;;4.10;3.50;;;;;;;15.11;86.63;99609.05;130514;1255;107542;-77
2023/07/27 00:33:03;;;;;;;4.90;3.50;;;;;;;15.12;86.48;99601.28;130627;1270;107545;-77
2023/07/27 00:36:09;;;;;;;5.10;3.90;;;;;;;15.14;86.60;99608.03;130493;1266;136239;-77
2023/07/27 00:39:14;;;;;;;5.00;4.00;;;;;;;15.15;86.49;99603.95;130606;1256;107448;-77
2023/07/27 00:42:20;;;;;;;4.60;4.20;;;;;;;15.15;86.44;99600.36;130559;1259;108602;-75
2023/07/27 00:45:27;;;;;;;5.20;4.20;;;;;;;15.14;86.27;99599.20;130529;1268;107565;-76
2023/07/27 00:48:32;;;;;;;4.80;3.30;;;;;;;15.12;86.34;99592.77;130565;1258;105599;-76
2023/07/27 00:51:40;;;;;;;4.00;3.60;;;;;;;15.12;86.29;99589.30;130549;1259;107509;-76
2023/07/27 00:54:45;;;;;;;5.40;4.20;;;;;;;15.13;86.26;99591.24;130578;1268;107452;-76
2023/07/27 00:57:52;;;;;;;4.60;4.10;;;;;;;15.11;86.30;99603.72;130577;1259;109330;-76
2023/07/27 01:01:00;;;;;;;4.70;4.20;;;;;;;15.03;86.30;99609.25;130539;1260;107216;-76
2023/07/27 01:04:06;;;;;;;3.80;3.50;;;;;;;15.01;86.48;99607.88;130612;1268;106726;-76
2023/07/27 01:07:12;;;;;;;3.60;3.30;;;;;;;15.01;86.53;99610.23;130584;1267;107590;-77
2023/07/27 01:10:18;;;;;;;5.10;3.90;;;;;;;15.00;86.46;99604.08;130489;1261;105620;-76
2023/07/27 01:13:31;;;;;;;6.80;3.70;;;;;;;14.99;86.19;99607.25;130657;1259;107183;-77
2023/07/27 01:16:44;;;;;;;6.40;4.00;;;;;;;14.99;86.49;99607.58;130567;1260;107436;-76
2023/07/27 01:20:05;;;;;;;5.40;4.20;;;;;;;15.01;86.29;99610.20;130547;1260;107143;-77
2023/07/27 01:23:54;;;;;;;6.70;4.20;;;;;;;14.95;86.18;99607.92;130545;1259;107617;-77
2023/07/27 01:27:19;;;;;;;5.50;3.60;;;;;;;14.86;86.28;99613.65;130696;1260;107558;-77
2023/07/27 01:30:59;;;;;;;3.90;3.30;;;;;;;14.83;86.24;99612.06;130545;1259;107283;-78
2023/07/27 01:34:07;;;;;;;4.20;3.50;;;;;;;14.81;86.24;99613.08;130128;1267;107458;-78
2023/07/27 01:37:16;;;;;;;4.60;4.20;;;;;;;14.80;86.15;99610.33;130653;1267;107367;-77
2023/07/27 01:40:22;;;;;;;4.40;4.00;;;;;;;14.79;86.05;99615.14;130595;1255;107420;-77
2023/07/27 01:43:29;;;;;;;4.60;4.10;;;;;;;14.79;86.10;99619.85;130679;1259;106713;-78
2023/07/27 01:46:36;;;;;;;6.50;4.00;;;;;;;14.76;86.09;99620.94;130611;1259;106293;-78
2023/07/27 01:49:44;;;;;;;4.50;4.10;;;;;;;14.72;86.12;99625.55;130619;1255;107397;-78
2023/07/27 01:52:52;;;;;;;6.60;4.50;;;;;;;14.64;85.91;99631.23;130655;1267;107547;-78
2023/07/27 01:55:59;;;;;;;5.70;4.20;;;;;;;14.52;86.04;99634.81;130552;1269;107381;-76
2023/07/27 01:59:06;;;;;;;5.60;3.70;;;;;;;14.53;86.30;99631.52;130616;1259;107517;-76
2023/07/27 02:02:12;;;;;;;5.10;3.80;;;;;;;14.57;86.18;99635.91;130636;1254;107545;-77
2023/07/27 02:05:20;;;;;;;5.90;4.60;;;;;;;14.58;86.06;99646.53;130626;1260;107614;-77
2023/07/27 02:08:25;;;;;;;5.00;3.90;;;;;;;14.57;86.04;99647.21;130558;1256;107595;-76
2023/07/27 02:11:31;;;;;;;3.90;3.50;;;;;;;14.53;85.94;99647.75;130636;1259;107444;-75
2023/07/27 02:14:44;;;;;;;4.00;3.60;;;;;;;14.50;85.83;99645.05;130647;1259;107551;-76
2023/07/27 02:17:54;;;;;;;5.60;4.10;;;;;;;14.48;85.65;99644.16;130570;1260;108516;-76
2023/07/27 02:21:02;;;;;;;8.60;4.40;;;;;;;14.46;85.59;99644.23;130693;1261;107533;-76
2023/07/27 02:24:08;;;;;;;6.30;4.30;;;;;;;14.39;85.22;99649.93;130683;1254;107369;-77
2023/07/27 02:27:14;;;;;;;6.40;4.20;;;;;;;14.25;85.20;99652.55;130676;1260;107420;-77
2023/07/27 02:30:20;;;;;;;3.90;3.50;;;;;;;14.17;85.45;99654.44;130605;1260;107564;-78
2023/07/27 02:33:25;;;;;;;3.90;3.50;;;;;;;14.11;85.27;99657.67;130628;1263;107555;-77
2023/07/27 02:36:31;;;;;;;4.10;3.50;;;;;;;14.06;85.25;99662.45;130705;1259;107558;-76
2023/07/27 02:39:36;;;;;;;5.80;3.80;;;;;;;14.02;85.14;99669.39;130510;1269;107464;-73
2023/07/27 02:42:42;;;;;;;3.90;3.50;;;;;;;14.00;85.01;99674.79;130535;1261;107275;-73
2023/07/27 02:45:47;;;;;;;4.90;3.50;;;;;;;13.97;84.99;99678.00;130581;1261;107519;-72
2023/07/27 02:48:55;;;;;;;6.30;3.70;;;;;;;13.96;85.02;99677.41;130622;1260;107405;-73
2023/07/27 02:52:01;;;;;;;5.50;3.80;;;;;;;13.89;84.98;99680.06;130528;1259;107452;-73
2023/07/27 02:55:07;;;;;;;6.80;3.50;;;;;;;13.81;84.96;99679.64;130509;1265;107385;-72
2023/07/27 02:58:13;;;;;;;4.20;3.40;;;;;;;13.76;84.94;99683.09;130611;1260;107450;-72
2023/07/27 03:01:19;;;;;;;6.20;3.40;;;;;;;13.70;84.73;99687.92;130651;1258;107375;-73
2023/07/27 03:04:25;;;;;;;5.30;3.90;;;;;;;13.64;84.49;99691.85;130573;1257;107389;-72
2023/07/27 03:07:31;;;;;;;5.80;3.70;;;;;;;13.64;84.60;99695.35;130500;1258;107451;-73
2023/07/27 03:10:39;;;;;;;3.80;3.50;;;;;;;13.60;84.40;99695.02;130511;1263;107300;-73
2023/07/27 03:13:44;;;;;;;4.00;3.60;;;;;;;13.55;84.31;99696.35;130566;1269;106444;-73
2023/07/27 03:16:49;;;;;;;5.30;3.90;;;;;;;13.47;84.33;99695.14;130528;1270;107593;-76
2023/07/27 03:19:55;;;;;;;7.40;3.40;;;;;;;13.43;84.40;99694.38;130598;1258;108659;-73
2023/07/27 03:23:00;;;;;;;3.70;3.30;;;;;;;13.41;84.33;99696.45;130499;1260;107593;-74
2023/07/27 03:26:12;;;;;;;4.10;3.10;;;;;;;13.40;84.28;99699.05;130524;1269;107408;-72
2023/07/27 03:29:18;;;;;;;5.00;3.60;;;;;;;13.43;84.44;99700.92;130537;1260;107544;-73
2023/07/27 03:32:24;;;;;;;6.90;3.80;;;;;;;13.48;84.37;99696.50;130554;1261;107439;-73
2023/07/27 03:35:29;;;;;;;4.70;3.50;;;;;;;13.54;84.50;99688.79;130501;1257;107258;-74
2023/07/27 03:38:35;;;;;;;4.10;3.50;;;;;;;13.61;84.49;99691.81;130543;1260;107336;-73
2023/07/27 03:41:41;;;;;;;3.70;3.40;;;;;;;13.68;84.28;99701.14;130490;1263;107388;-73
2023/07/27 03:44:46;;;;;;;5.30;3.50;;;;;;;13.76;84.23;99704.16;130544;1261;108392;-72
2023/07/27 03:47:52;;;;;;;3.50;3.00;;;;;;;13.85;84.23;99702.50;130518;1261;107546;-73
2023/07/27 03:51:01;;;;;;;3.60;3.10;;;;;;;13.95;84.06;99700.47;130522;1261;106814;-73
2023/07/27 03:54:07;;;;;;;3.60;3.20;;;;;;;14.04;83.90;99696.14;130526;1260;107537;-72
2023/07/27 03:57:15;;;;;;;5.20;3.60;;;;;;;14.11;83.87;99698.66;130525;1258;107436;-73
2023/07/27 04:00:21;;;;;;;3.80;3.40;;;;;;;14.16;83.84;99700.51;130544;1260;107376;-73
2023/07/27 04:03:26;;;;;;;3.90;3.40;;;;;;;14.20;83.81;99702.69;130535;1261;105804;-73
2023/07/27 04:06:33;;;;;;;3.50;3.10;;;;;;;14.26;83.66;99697.30;130509;1260;107516;-73
2023/07/27 04:09:38;;;;;;;3.40;2.80;;;;;;;14.35;83.83;99701.52;130511;1261;107587;-73
2023/07/27 04:12:44;;;;;;;4.90;3.00;;;;;;;14.51;83.90;99700.98;130527;1261;107559;-73
2023/07/27 04:15:50;;;;;;;3.80;3.00;;;;;;;14.68;83.88;99699.33;130470;1262;107519;-73
2023/07/27 04:18:55;;;;;;;5.60;3.20;;;;;;;14.87;83.77;99702.27;130505;1260;107515;-73
2023/07/27 04:22:01;;;;;;;3.90;3.30;;;;;;;15.04;83.41;99708.70;130431;1260;107477;-73
2023/07/27 04:25:09;;;;;;;4.80;3.80;;;;;;;15.07;83.49;99704.85;130491;1257;107320;-74
2023/07/27 04:28:14;;;;;;;4.70;3.60;;;;;;;15.10;83.47;99705.98;130534;1261;107555;-73
2023/07/27 04:31:20;;;;;;;7.40;3.30;;;;;;;15.13;83.40;99707.02;130488;1258;107569;-73
2023/07/27 04:34:25;;;;;;;4.90;4.10;;;;;;;15.25;83.46;99710.88;130596;1260;107614;-73
2023/07/27 04:37:31;;;;;;;3.70;3.20;;;;;;;15.42;83.55;99711.36;130500;1260;107381;-74
2023/07/27 04:40:36;;;;;;;4.70;3.70;;;;;;;15.56;83.37;99706.88;130419;1258;108529;-74
2023/07/27 04:43:42;;;;;;;6.10;4.00;;;;;;;15.66;83.18;99707.39;130523;1261;107543;-74
2023/07/27 04:46:47;;;;;;;5.80;3.50;;;;;;;15.78;83.08;99703.70;130457;1257;107600;-75
2023/07/27 04:49:53;;;;;;;5.90;3.90;;;;;;;15.87;82.82;99703.54;130483;1258;106691;-75
2023/07/27 04:52:59;;;;;;;4.50;3.50;;;;;;;15.90;82.64;99704.96;130458;1258;107642;-74
2023/07/27 04:56:04;;;;;;;4.20;3.30;;;;;;;15.88;82.60;99704.91;130559;1262;108161;-74
2023/07/27 04:59:10;;;;;;;6.10;3.30;;;;;;;15.97;82.71;99708.16;130555;1261;107606;-74
2023/07/27 05:02:15;;;;;;;6.40;3.70;;;;;;;16.15;82.71;99705.86;130504;1262;107460;-74
2023/07/27 05:05:21;;;;;;;6.40;3.90;;;;;;;16.32;82.59;99710.95;130555;1254;107529;-74
2023/07/27 05:08:26;;;;;;;5.20;3.90;;;;;;;16.40;81.21;99712.58;130504;1259;107532;-74
2023/07/27 05:11:32;;;;;;;9.20;4.40;;;;;;;16.40;81.80;99721.48;130534;1258;107521;-74
2023/07/27 05:14:38;;;;;;;8.20;4.30;;;;;;;16.51;81.42;99717.61;130588;1258;107543;-74
2023/07/27 05:17:43;;;;;;;5.00;4.00;;;;;;;16.58;81.39;99712.02;130522;1270;107550;-74
2023/07/27 05:20:49;;;;;;;4.60;3.60;;;;;;;16.55;80.18;99716.89;130544;1258;107564;-76
2023/07/27 05:23:54;;;;;;;5.20;3.70;;;;;;;16.58;81.64;99719.95;130578;1261;106575;-74
2023/07/27 05:27:00;;;;;;;4.40;3.50;;;;;;;16.84;81.12;99720.08;130578;1254;107633;-74
2023/07/27 05:30:07;;;;;;;5.90;3.50;;;;;;;17.04;81.28;99719.28;130549;1254;108643;-74
2023/07/27 05:33:12;;;;;;;6.10;3.70;;;;;;;17.26;80.32;99723.15;130638;1259;108554;-74
2023/07/27 05:36:18;;;;;;;5.80;3.80;;;;;;;17.20;79.64;99726.12;130604;1259;106511;-75
2023/07/27 05:39:23;;;;;;;4.50;3.30;;;;;;;16.89;77.98;99721.35;130656;1255;107436;-74
2023/07/27 05:42:29;;;;;;;3.80;3.00;;;;;;;16.60;79.59;99726.33;130704;1259;107635;-74
2023/07/27 05:45:34;;;;;;;5.00;3.00;;;;;;;16.44;77.97;99726.05;130603;1259;107459;-74
2023/07/27 05:48:51;;;;;;;9.00;3.40;;;;;;;16.09;78.55;99722.00;130578;1254;107265;-75
2023/07/27 05:52:09;;;;;;;3.70;3.30;;;;;;;16.11;78.87;99722.20;130805;1258;107834;-74
2023/07/27 05:55:14;;;;;;;3.70;3.00;;;;;;;16.16;79.34;99721.44;130666;1259;108556;-74
2023/07/27 05:58:41;;;;;;;3.50;3.10;;;;;;;16.24;79.43;99727.25;130546;1261;106731;-74
2023/07/27 06:01:52;;;;;;;4.40;2.90;;;;;;;16.37;79.15;99729.73;130776;1254;107997;-75
2023/07/27 06:05:07;;;;;;;4.10;2.70;;;;;;;16.50;79.02;99726.14;130548;1257;107320;-75
2023/07/27 06:08:21;;;;;;;4.20;2.90;;;;;;;16.62;79.06;99722.36;130719;1261;108223;-73
2023/07/27 06:11:27;;;;;;;4.60;2.80;;;;;;;16.66;78.39;99720.38;130448;1260;107437;-72
2023/07/27 06:14:33;;;;;;;4.10;2.80;;;;;;;16.61;77.00;99721.11;130553;1261;107421;-72
2023/07/27 06:17:38;;;;;;;5.00;3.00;;;;;;;16.49;77.72;99721.39;130537;1258;107533;-73
2023/07/27 06:20:44;;;;;;;3.70;2.80;;;;;;;16.47;78.03;99723.78;130589;1260;108557;-72
2023/07/27 06:23:50;;;;;;;4.10;3.00;;;;;;;16.42;77.78;99726.18;130497;1261;107600;-74
2023/07/27 06:26:55;;;;;;;5.80;2.50;;;;;;;16.29;76.81;99722.52;130506;1260;106395;-73
2023/07/27 06:30:01;;;;;;;3.60;2.50;;;;;;;16.21;77.14;99729.44;130523;1261;107952;-73
2023/07/27 06:33:07;;;;;;;4.00;2.80;;;;;;;16.15;77.49;99724.12;130551;1260;108179;-73
2023/07/27 06:36:13;;;;;;;3.50;2.60;;;;;;;16.21;77.90;99728.02;130590;1256;107464;-73
2023/07/27 06:39:19;;;;;;;4.50;2.70;;;;;;;16.29;77.76;99720.30;130567;1267;108163;-73
2023/07/27 06:42:25;;;;;;;4.10;2.90;;;;;;;16.29;76.87;99722.09;130596;1261;107415;-73
2023/07/27 06:45:30;;;;;;;4.50;2.90;;;;;;;16.29;76.62;99721.35;130515;1256;107571;-73
2023/07/27 06:48:36;;;;;;;7.30;3.60;;;;;;;16.28;76.97;99716.70;130569;1256;107370;-73
2023/07/27 06:51:41;;;;;;;4.90;2.90;;;;;;;16.35;77.07;99717.92;130577;1260;107555;-72
2023/07/27 06:54:47;;;;;;;3.90;3.20;;;;;;;16.30;75.80;99720.15;130517;1260;107539;-73
2023/07/27 06:57:54;;;;;;;5.90;2.80;;;;;;;16.29;77.13;99718.70;130481;1259;107588;-73
2023/07/27 07:01:00;;;;;;;4.40;3.10;;;;;;;16.46;77.12;99724.15;130506;1260;107495;-73
2023/07/27 07:04:06;;;;;;;4.90;3.10;;;;;;;16.53;76.57;99726.38;130582;1260;109118;-72
2023/07/27 07:07:12;;;;;;;5.90;2.80;;;;;;;16.58;75.70;99722.94;130591;1254;108129;-72
2023/07/27 07:10:18;;;;;;;5.30;2.80;;;;;;;16.65;76.16;99723.47;130617;1260;107545;-72
2023/07/27 07:13:24;;;;;;;4.00;2.80;;;;;;;16.69;75.19;99723.23;130633;1254;107586;-73
2023/07/27 07:16:30;;;;;;;5.30;2.80;;;;;;;16.75;76.23;99721.86;130590;1259;107528;-73
2023/07/27 07:19:35;;;;;;;4.70;2.60;;;;;;;16.86;76.38;99720.23;130617;1259;107152;-73
2023/07/27 07:22:41;;;;;;;2.80;2.30;;;;;;;17.04;76.77;99724.55;130602;1269;107235;-73
2023/07/27 07:25:47;;;;;;;4.40;2.30;;;;;;;17.18;74.98;99724.75;130485;1259;107581;-74
2023/07/27 07:28:53;;;;;;;3.70;2.60;;;;;;;17.14;73.65;99723.22;130590;1259;107650;-75
2023/07/27 07:31:58;;;;;;;5.50;2.70;;;;;;;17.12;73.30;99726.70;130523;1261;107601;-73
2023/07/27 07:35:04;;;;;;;4.50;2.60;;;;;;;17.11;72.93;99726.58;130581;1259;107511;-73
2023/07/27 07:38:10;;;;;;;3.80;2.50;;;;;;;17.19;73.36;99725.31;130584;1259;107706;-73
2023/07/27 07:41:15;;;;;;;4.00;2.90;;;;;;;17.30;74.46;99723.16;130556;1258;108711;-72
2023/07/27 07:44:20;;;;;;;2.90;2.30;;;;;;;17.45;73.32;99726.27;130559;1259;107560;-73
2023/07/27 07:47:26;;;;;;;4.10;2.10;;;;;;;17.44;72.33;99723.81;130549;1259;107507;-74
2023/07/27 07:50:36;;;;;;;3.80;2.00;;;;;;;17.51;71.37;99727.05;130593;1261;107344;-73
2023/07/27 07:53:42;;;;;;;2.70;2.10;;;;;;;17.54;71.60;99728.50;130598;1260;106702;-73
2023/07/27 07:56:48;;;;;;;2.60;2.00;;;;;;;17.66;72.66;99725.67;130590;1261;107545;-74
2023/07/27 07:59:54;;;;;;;2.80;1.80;;;;;;;17.75;71.70;99722.20;130594;1261;107467;-73
2023/07/27 08:03:00;;;;;;;4.10;1.70;;;;;;;17.87;72.46;99721.43;130543;1258;107596;-73
2023/07/27 08:06:07;;;;;;;2.40;1.60;;;;;;;17.93;69.76;99728.19;130531;1259;107743;-73
2023/07/27 08:09:12;;;;;;;2.50;1.70;;;;;;;17.97;70.01;99728.45;130580;1256;107594;-73
2023/07/27 08:12:18;;;;;;;2.10;1.60;;;;;;;18.05;69.94;99730.20;130548;1259;107498;-73
2023/07/27 08:15:23;;;;;;;4.10;1.80;;;;;;;18.12;69.49;99725.65;130549;1256;107669;-73
2023/07/27 08:18:29;;;;;;;2.50;1.50;;;;;;;18.22;68.67;99729.38;130562;1259;107466;-74
2023/07/27 08:21:34;;;;;;;3.00;1.70;;;;;;;18.26;69.24;99728.06;130530;1270;107537;-73
2023/07/27 08:24:40;;;;;;;3.80;1.60;;;;;;;18.36;69.81;99726.30;130593;1259;107537;-73
2023/07/27 08:27:45;;;;;;;2.00;1.50;;;;;;;18.42;68.34;99720.86;130659;1259;107607;-73
2023/07/27 08:30:52;;;;;;;1.60;1.30;;;;;;;18.41;67.19;99721.87;130595;1256;107229;-73
2023/07/27 08:33:57;;;;;;;2.20;1.50;;;;;;;18.44;67.65;99714.91;130647;1259;107555;-73
2023/07/27 08:37:03;;;;;;;2.50;1.60;;;;;;;18.53;67.74;99715.39;130507;1259;107402;-74
2023/07/27 08:40:11;;;;;;;2.00;1.50;;;;;;;18.64;66.63;99716.48;130535;1259;106589;-73
2023/07/27 08:43:17;;;;;;;2.10;1.30;;;;;;;18.73;66.93;99710.88;130573;1259;107607;-73
2023/07/27 08:46:24;;;;;;;2.00;1.40;;;;;;;18.76;64.01;99717.80;130560;1261;107552;-73
2023/07/27 08:49:31;;;;;;;2.40;1.40;;;;;;;18.78;63.13;99713.80;130540;1260;107448;-73
2023/07/27 08:52:36;;;;;;;2.10;1.50;;;;;;;18.80;63.59;99709.92;130541;1255;107614;-73
2023/07/27 08:55:42;;;;;;;1.80;1.40;;;;;;;18.89;65.10;99705.20;130563;1256;107545;-73
2023/07/27 08:58:48;;;;;;;1.50;1.20;;;;;;;19.04;61.95;99706.58;130584;1259;105854;-74
2023/07/27 09:01:54;;;;;;;2.00;1.10;;;;;;;19.08;63.65;99702.04;130614;1259;107583;-73
2023/07/27 09:04:59;;;;;;;1.50;1.10;;;;;;;19.31;63.38;99699.86;130549;1259;107518;-73
2023/07/27 09:08:10;;;;;;;1.40;1.20;;;;;;;19.48;62.40;99700.55;130507;1260;107395;-74
2023/07/27 09:11:20;;;;;;;1.90;1.30;;;;;;;19.49;59.07;99695.20;130562;1259;107516;-73
2023/07/27 09:14:25;;;;;;;1.60;1.20;;;;;;;19.47;58.35;99696.20;130560;1259;107370;-73
2023/07/27 09:17:33;;;;;;;2.60;1.10;;;;;;;19.63;62.38;99694.73;130508;1256;107655;-73
2023/07/27 09:20:39;;;;;;;2.40;1.20;;;;;;;19.84;61.49;99694.55;130638;1259;107653;-74
2023/07/27 09:23:45;;;;;;;1.20;1.10;;;;;;;19.89;58.00;99693.89;130620;1259;107543;-74
2023/07/27 09:26:52;;;;;;;1.90;1.00;;;;;;;19.96;59.33;99689.48;130562;1259;106706;-74
2023/07/27 09:30:00;;;;;;;2.50;1.20;;;;;;;20.15;60.60;99683.42;130575;1257;107535;-73
2023/07/27 09:33:06;;;;;;;2.20;1.30;;;;;;;20.23;56.81;99683.69;130518;1256;108018;-74
2023/07/27 09:36:13;;;;;;;1.50;1.00;;;;;;;20.19;58.89;99681.33;130577;1257;107391;-73
2023/07/27 09:39:19;;;;;;;3.10;1.20;;;;;;;20.33;56.97;99683.54;130566;1259;106518;-73
2023/07/27 09:42:25;;;;;;;3.00;1.00;;;;;;;20.37;54.53;99684.83;130550;1258;107377;-73
2023/07/27 09:45:38;;;;;;;1.70;1.10;;;;;;;20.34;55.39;99683.11;130546;1254;107468;-73
2023/07/27 09:48:43;;;;;;;1.50;0.90;;;;;;;20.32;58.32;99682.60;130588;1259;106042;-73
2023/07/27 09:51:51;;;;;;;1.10;0.90;;;;;;;20.42;59.16;99679.20;130514;1254;107477;-73
2023/07/27 09:54:58;;;;;;;1.20;0.80;;;;;;;20.64;59.07;99678.30;130571;1259;107601;-74
2023/07/27 09:58:05;;;;;;;2.50;1.10;;;;;;;20.77;55.54;99682.48;130612;1255;108107;-73
2023/07/27 10:01:11;;;;;;;1.30;0.90;;;;;;;20.76;56.26;99684.81;130515;1270;108119;-74
2023/07/27 10:04:17;;;;;;;1.50;1.00;;;;;;;20.49;52.40;99688.11;130622;1259;107433;-74
2023/07/27 10:07:26;;;;;;;1.40;0.80;;;;;;;20.35;54.15;99689.17;130573;1257;107259;-74
2023/07/27 10:10:39;;;;;;;1.40;1.10;;;;;;;20.47;52.89;99689.41;130567;1259;107500;-73
2023/07/27 10:13:46;;;;;;;1.50;0.90;;;;;;;20.51;53.13;99681.77;130635;1254;107507;-75
2023/07/27 10:17:03;;;;;;;1.30;1.00;;;;;;;20.67;53.38;99678.71;130587;1258;107406;-74
2023/07/27 10:20:24;;;;;;;2.70;0.90;;;;;;;20.97;55.18;99679.55;130593;1260;107370;-73
2023/07/27 10:23:32;;;;;;;2.00;1.00;;;;;;;21.33;54.51;99672.16;130626;1256;107641;-74
2023/07/27 10:26:54;;;;;;;1.30;0.80;;;;;;;21.44;51.11;99668.84;130681;1259;107475;-73
2023/07/27 10:30:13;;;;;;;1.30;0.80;;;;;;;21.57;53.11;99665.85;130544;1254;108254;-73
2023/07/27 10:33:26;;;;;;;1.40;1.00;;;;;;;21.65;52.20;99669.92;130581;1259;107556;-73
2023/07/27 10:36:56;;;;;;;1.20;1.00;;;;;;;21.60;53.17;99663.09;130555;1256;107553;-73
2023/07/27 10:40:03;;;;;;;1.80;1.00;;;;;;;21.45;51.31;99663.27;130589;1260;106665;-73
2023/07/27 10:43:09;;;;;;;1.10;0.80;;;;;;;21.32;50.51;99666.33;130546;1259;107345;-75
2023/07/27 10:46:25;;;;;;;1.70;0.80;;;;;;;21.25;50.41;99665.63;130542;1258;107715;-74
2023/07/27 10:49:31;;;;;;;1.60;1.10;;;;;;;21.26;47.26;99667.98;130528;1259;107619;-74
2023/07/27 10:52:39;;;;;;;1.90;1.10;;;;;;;21.21;47.50;99654.52;130642;1255;107481;-74
2023/07/27 10:55:46;;;;;;;1.00;0.90;;;;;;;21.33;49.34;99656.04;130582;1256;107370;-74
2023/07/27 10:58:56;;;;;;;1.60;0.90;;;;;;;21.49;49.86;99651.83;130546;1254;107552;-74
2023/07/27 11:02:02;;;;;;;1.30;1.10;;;;;;;21.55;48.50;99653.33;130598;1259;107520;-75
2023/07/27 11:05:10;;;;;;;1.00;0.90;;;;;;;21.52;49.40;99653.20;130529;1261;106472;-73
2023/07/27 11:08:15;;;;;;;1.50;1.00;;;;;;;21.65;50.89;99646.08;130557;1258;107517;-75
2023/07/27 11:11:23;;;;;;;1.20;1.10;;;;;;;21.82;50.53;99647.30;130562;1257;107257;-73
2023/07/27 11:14:29;;;;;;;1.30;0.90;;;;;;;21.93;49.13;99639.26;130667;1259;107444;-73
2023/07/27 11:17:36;;;;;;;2.50;1.10;;;;;;;21.94;48.33;99644.27;130587;1254;108862;-73
2023/07/27 11:20:43;;;;;;;1.30;1.00;;;;;;;21.87;49.56;99639.14;130622;1259;107396;-73
2023/07/27 11:23:49;;;;;;;1.20;0.90;;;;;;;21.84;50.18;99639.58;130494;1266;107235;-73
2023/07/27 11:26:56;;;;;;;1.20;1.10;;;;;;;21.86;48.55;99638.57;130575;1259;107361;-73
2023/07/27 11:30:04;;;;;;;1.20;1.00;;;;;;;21.73;47.75;99636.31;130611;1254;107276;-73
2023/07/27 11:33:10;;;;;;;2.10;1.20;;;;;;;21.83;48.66;99632.88;130680;1256;107460;-73
2023/07/27 11:36:15;;;;;;;1.70;1.10;;;;;;;22.15;49.50;99629.77;130586;1259;107611;-73
2023/07/27 11:39:21;;;;;;;1.60;1.20;;;;;;;22.56;49.61;99616.66;130587;1259;107563;-74
2023/07/27 11:42:31;;;;;;;1.20;1.10;;;;;;;22.92;47.60;99612.98;130585;1259;107532;-73
2023/07/27 11:45:38;;;;;;;1.50;1.10;;;;;;;23.23;48.35;99606.39;130673;1256;107541;-73
2023/07/27 11:48:44;;;;;;;3.50;1.20;;;;;;;23.39;47.98;99604.76;130588;1259;107474;-73
2023/07/27 11:51:50;;;;;;;1.10;1.00;;;;;;;23.49;48.86;99605.79;130599;1259;107855;-74
2023/07/27 11:54:56;;;;;;;2.00;1.00;;;;;;;23.68;48.65;99599.20;130560;1259;107538;-74
2023/07/27 11:58:04;;;;;;;1.80;1.10;;;;;;;23.90;49.11;99595.09;130605;1259;107546;-73
2023/07/27 12:01:11;;;;;;;2.50;1.10;;;;;;;24.05;49.06;99597.15;130605;1254;107248;-73
2023/07/27 12:04:16;;;;;;;1.90;1.10;;;;;;;24.22;48.88;99596.05;130691;1259;108314;-73
2023/07/27 12:07:26;;;;;;;2.10;1.30;;;;;;;24.19;47.85;99598.63;130617;1254;107334;-74
2023/07/27 12:10:31;;;;;;;1.90;1.00;;;;;;;23.95;47.90;99596.44;130666;1256;107274;-74
2023/07/27 12:13:37;;;;;;;1.20;1.10;;;;;;;23.76;46.27;99597.60;130660;1258;107576;-73
2023/07/27 12:16:45;;;;;;;1.30;1.20;;;;;;;23.53;46.87;99596.20;130613;1256;107542;-73
2023/07/27 12:19:50;;;;;;;2.20;1.30;;;;;;;23.31;45.44;99594.13;130636;1254;106216;-73
2023/07/27 12:22:56;;;;;;;1.50;1.20;;;;;;;23.26;47.09;99591.69;130572;1254;108133;-73
2023/07/27 12:26:02;;;;;;;2.10;1.40;;;;;;;23.34;47.24;99588.67;130554;1259;107561;-74
2023/07/27 12:29:07;;;;;;;1.50;1.20;;;;;;;23.48;46.17;99586.06;130584;1255;106858;-73
2023/07/27 12:32:13;;;;;;;2.30;1.10;;;;;;;23.49;46.47;99584.60;130522;1259;107542;-73
2023/07/27 12:35:19;;;;;;;1.30;1.00;;;;;;;23.54;47.02;99584.27;130390;1259;274797;-73
2023/07/27 12:38:25;;;;;;;1.40;1.30;;;;;;;23.56;46.01;99578.52;130552;1259;107377;-73
2023/07/27 12:41:30;;;;;;;1.20;1.10;;;;;;;23.41;46.53;99575.75;130581;1259;107941;-73
2023/07/27 12:44:36;;;;;;;1.70;1.10;;;;;;;23.35;45.98;99572.73;130546;1259;107460;-73
2023/07/27 12:47:43;;;;;;;2.10;1.30;;;;;;;23.29;46.47;99565.80;130594;1255;107140;-73
2023/07/27 12:50:49;;;;;;;1.60;1.30;;;;;;;23.21;45.31;99567.88;130624;1254;108138;-73
2023/07/27 12:53:55;;;;;;;2.30;1.50;;;;;;;22.99;46.12;99564.58;130640;1259;107470;-73
2023/07/27 12:57:01;;;;;;;2.10;1.50;;;;;;;22.85;45.32;99569.21;130553;1259;107458;-73
2023/07/27 13:00:11;;;;;;;1.70;1.40;;;;;;;22.64;45.66;99566.21;130575;1259;107364;-73
2023/07/27 13:03:16;;;;;;;2.20;1.60;;;;;;;22.38;45.22;99566.20;130611;1259;107225;-73
2023/07/27 13:06:22;;;;;;;1.80;1.40;;;;;;;22.13;46.08;99566.25;130536;1255;107566;-73
2023/07/27 13:09:27;;;;;;;2.20;1.50;;;;;;;22.18;46.44;99558.35;130566;1259;107597;-73
2023/07/27 13:12:33;;;;;;;1.50;1.40;;;;;;;22.31;46.28;99549.23;130525;1259;107452;-73
2023/07/27 13:15:38;;;;;;;2.20;1.20;;;;;;;22.29;45.85;99547.36;130601;1259;107418;-73
2023/07/27 13:18:45;;;;;;;1.40;1.20;;;;;;;22.31;45.90;99545.98;130502;1259;107580;-73
2023/07/27 13:21:50;;;;;;;2.90;1.30;;;;;;;22.42;45.67;99552.23;130621;1256;107290;-73
2023/07/27 13:24:56;;;;;;;1.70;1.40;;;;;;;22.52;45.44;99548.41;130540;1259;107513;-73
2023/07/27 13:28:01;;;;;;;1.30;1.20;;;;;;;22.54;45.41;99540.08;130516;1255;106575;-74
2023/07/27 13:31:07;;;;;;;1.50;1.20;;;;;;;22.57;45.63;99538.70;130529;1259;107390;-73
2023/07/27 13:34:13;;;;;;;1.70;1.40;;;;;;;22.55;44.85;99538.17;130589;1258;105661;-73
2023/07/27 13:37:18;;;;;;;1.50;1.40;;;;;;;22.42;43.98;99538.04;130572;1256;107488;-73
2023/07/27 13:40:24;;;;;;;1.70;1.30;;;;;;;22.40;45.17;99534.36;130557;1259;107364;-73
2023/07/27 13:43:29;;;;;;;1.80;1.30;;;;;;;22.43;44.35;99532.55;130568;1254;107547;-73
2023/07/27 13:46:35;;;;;;;1.20;1.10;;;;;;;22.43;45.02;99528.98;130595;1260;106790;-74
2023/07/27 13:49:40;;;;;;;1.40;1.30;;;;;;;22.58;43.79;99528.00;130530;1254;107119;-73
2023/07/27 13:52:46;;;;;;;1.80;1.20;;;;;;;22.62;43.20;99523.54;130534;1257;109270;-75
2023/07/27 13:55:52;;;;;;;1.30;1.20;;;;;;;22.69;43.65;99519.34;130541;1259;107515;-73
2023/07/27 13:58:58;;;;;;;1.20;1.00;;;;;;;22.75;43.81;99514.48;130571;1256;107257;-73
2023/07/27 14:02:04;;;;;;;1.80;1.50;;;;;;;22.81;44.04;99518.15;130605;1262;107447;-73
2023/07/27 14:05:10;;;;;;;3.10;1.30;;;;;;;22.82;43.46;99520.55;130556;1259;107414;-73
2023/07/27 14:08:15;;;;;;;1.60;1.20;;;;;;;22.77;41.93;99519.89;130534;1256;107563;-74
2023/07/27 14:11:21;;;;;;;1.40;1.20;;;;;;;22.79;41.39;99512.77;130697;1259;107792;-73
2023/07/27 14:14:26;;;;;;;1.20;1.10;;;;;;;22.82;42.41;99511.35;130619;1258;106702;-73
2023/07/27 14:17:32;;;;;;;1.50;1.20;;;;;;;22.78;41.83;99512.23;130635;1259;107412;-74
2023/07/27 14:20:38;;;;;;;2.50;1.20;;;;;;;22.74;41.97;99507.67;130538;1254;107581;-73